Time;durP1;ratioP1;P1;durP2;ratioP2;P2;SDS_P1;SDS_P2;PMS_P1;PMS_P2;Temp;Humidity;BMP_temperature;BMP_pressure;BME280_temperature;BME280_humidity;BME280_pressure;Samples;Min_cycle;Max_cycle;Signal;HPM_P1;HPM_P2
2023/10/21 00:00:21;;;;;;;9.27;5.47;;;12.90;99.90;;;;;;6271910;22;20337;-84
2023/10/21 00:02:46;;;;;;;9.48;5.43;;;12.90;99.90;;;;;;6272189;22;20000;-83
2023/10/21 00:05:12;;;;;;;10.93;6.22;;;12.90;99.90;;;;;;6271780;22;20010;-83
2023/10/21 00:07:37;;;;;;;8.43;5.97;;;12.80;99.90;;;;;;6272507;22;20000;-82
2023/10/21 00:10:06;;;;;;;11.10;5.57;;;12.80;99.90;;;;;;6271802;22;20465;-82
2023/10/21 00:12:33;;;;;;;10.90;6.57;;;12.80;99.90;;;;;;6272580;22;20052;-82
2023/10/21 00:14:58;;;;;;;9.30;7.25;;;12.80;99.90;;;;;;6271980;22;19992;-82
2023/10/21 00:17:26;;;;;;;10.13;7.05;;;12.70;99.90;;;;;;6271686;22;20018;-83
2023/10/21 00:19:51;;;;;;;13.15;7.93;;;12.70;99.90;;;;;;6272050;22;20367;-83
2023/10/21 00:22:17;;;;;;;15.30;6.78;;;12.70;99.90;;;;;;6271917;22;19996;-82
2023/10/21 00:24:42;;;;;;;9.23;7.60;;;12.70;99.90;;;;;;6244807;22;20003;-83
2023/10/21 00:27:08;;;;;;;10.73;7.55;;;12.70;99.90;;;;;;6271633;22;19995;-83
2023/10/21 00:29:34;;;;;;;12.60;7.95;;;12.60;99.90;;;;;;6272337;22;20003;-82
2023/10/21 00:31:59;;;;;;;13.05;7.90;;;12.60;99.90;;;;;;6271717;22;20452;-83
2023/10/21 00:34:25;;;;;;;8.23;7.35;;;12.60;99.90;;;;;;6271943;22;19996;-84
2023/10/21 00:36:50;;;;;;;15.38;7.93;;;12.60;99.90;;;;;;6272400;22;20010;-83
2023/10/21 00:39:16;;;;;;;11.32;7.28;;;12.50;99.90;;;;;;6271779;22;20503;-83
2023/10/21 00:41:42;;;;;;;13.75;7.10;;;12.50;99.90;;;;;;6272365;22;20008;-83
2023/10/21 00:44:08;;;;;;;9.77;7.68;;;12.50;99.90;;;;;;6271469;22;20004;-82
2023/10/21 00:46:34;;;;;;;12.13;6.80;;;12.50;99.90;;;;;;6272238;22;20442;-83
2023/10/21 00:49:00;;;;;;;10.88;6.57;;;12.50;99.90;;;;;;6271963;22;20000;-83
2023/10/21 00:51:26;;;;;;;11.63;5.70;;;12.60;99.90;;;;;;6271578;22;20437;-82
2023/10/21 00:53:52;;;;;;;10.65;5.72;;;12.70;99.90;;;;;;6271589;22;19996;-82
2023/10/21 00:56:18;;;;;;;9.95;5.45;;;12.70;99.90;;;;;;6271998;22;20000;-83
2023/10/21 00:58:44;;;;;;;10.38;5.88;;;12.70;99.90;;;;;;6272234;22;20019;-83
2023/10/21 01:01:10;;;;;;;10.68;6.63;;;12.70;99.90;;;;;;6270946;22;20067;-83
2023/10/21 01:03:37;;;;;;;10.85;6.13;;;12.70;99.90;;;;;;6272327;22;20055;-82
2023/10/21 01:06:03;;;;;;;11.48;6.45;;;12.70;99.90;;;;;;6272254;22;20010;-84
2023/10/21 01:08:28;;;;;;;11.38;5.90;;;12.70;99.90;;;;;;6274301;22;19999;-84
2023/10/21 01:10:55;;;;;;;9.50;5.75;;;12.70;99.90;;;;;;6273872;22;20016;-83
2023/10/21 01:13:21;;;;;;;9.25;6.25;;;12.70;99.90;;;;;;6273617;22;20010;-83
2023/10/21 01:15:46;;;;;;;6.68;4.60;;;12.70;99.90;;;;;;6273557;22;20385;-83
2023/10/21 01:18:13;;;;;;;11.40;6.07;;;12.80;99.90;;;;;;6273373;22;19999;-84
2023/10/21 01:20:41;;;;;;;9.38;5.70;;;12.80;99.90;;;;;;6274193;22;20000;-83
2023/10/21 01:23:15;;;;;;;6.88;5.35;;;12.80;99.90;;;;;;6273245;22;20007;-83
2023/10/21 01:25:40;;;;;;;12.52;5.90;;;12.90;99.90;;;;;;6273987;22;20006;-83
2023/10/21 01:28:06;;;;;;;7.65;5.28;;;12.90;99.90;;;;;;6273310;22;20414;-83
2023/10/21 01:30:31;;;;;;;8.95;5.40;;;12.90;99.90;;;;;;6273416;22;20057;-84
2023/10/21 01:32:57;;;;;;;8.27;5.05;;;12.90;99.90;;;;;;6273855;22;20167;-83
2023/10/21 01:35:22;;;;;;;9.70;4.53;;;13.00;99.90;;;;;;6273545;22;20005;-83
2023/10/21 01:37:48;;;;;;;8.65;5.40;;;13.00;99.90;;;;;;6273582;22;20004;-83
2023/10/21 01:40:14;;;;;;;8.00;5.30;;;13.10;99.90;;;;;;6273130;22;20015;-84
2023/10/21 01:42:40;;;;;;;10.90;5.10;;;13.10;99.90;;;;;;6273952;22;20008;-84
2023/10/21 01:45:07;;;;;;;10.20;6.50;;;13.10;99.90;;;;;;6272463;22;20003;-83
2023/10/21 01:47:33;;;;;;;11.85;5.68;;;13.10;99.90;;;;;;6274130;22;19996;-83
2023/10/21 01:49:59;;;;;;;8.90;5.53;;;13.10;99.90;;;;;;6246397;22;20003;-83
2023/10/21 01:52:24;;;;;;;5.90;4.55;;;13.10;99.90;;;;;;6273415;22;20330;-84
2023/10/21 01:54:51;;;;;;;11.35;5.65;;;13.10;99.90;;;;;;6273428;22;20163;-83
2023/10/21 01:57:16;;;;;;;10.38;5.38;;;13.10;99.90;;;;;;6245828;22;20006;-84
2023/10/21 01:59:43;;;;;;;9.05;4.95;;;13.10;99.90;;;;;;6273065;22;20325;-83
2023/10/21 02:02:09;;;;;;;14.23;5.10;;;13.10;99.90;;;;;;6272949;22;20007;-84
2023/10/21 02:04:35;;;;;;;12.38;4.57;;;13.00;99.90;;;;;;6274078;22;20003;-83
2023/10/21 02:07:00;;;;;;;13.30;5.57;;;12.90;99.90;;;;;;6274513;22;20008;-84
2023/10/21 02:09:26;;;;;;;7.82;5.00;;;12.90;99.90;;;;;;6273935;22;20421;-84
2023/10/21 02:11:57;;;;;;;6.55;4.57;;;12.90;99.90;;;;;;6272814;22;19999;-83
2023/10/21 02:14:23;;;;;;;12.45;4.70;;;12.90;99.90;;;;;;6272902;22;20102;-83
2023/10/21 02:16:53;;;;;;;9.38;5.10;;;12.80;99.90;;;;;;6273543;22;20026;-83
2023/10/21 02:19:19;;;;;;;6.90;4.80;;;12.80;99.90;;;;;;6272501;22;20004;-83
2023/10/21 02:21:45;;;;;;;12.85;5.03;;;12.80;99.90;;;;;;6273492;22;20061;-83
2023/10/21 02:24:10;;;;;;;7.15;4.78;;;12.80;99.90;;;;;;6272664;22;20003;-82
2023/10/21 02:26:36;;;;;;;6.07;4.93;;;12.70;99.90;;;;;;6272980;22;20473;-83
2023/10/21 02:29:02;;;;;;;7.78;4.30;;;12.70;99.90;;;;;;6272648;22;20337;-84
2023/10/21 02:31:27;;;;;;;6.82;4.25;;;12.70;99.90;;;;;;6273091;22;20014;-83
2023/10/21 02:33:53;;;;;;;6.70;4.88;;;12.70;99.90;;;;;;6272696;22;20031;-83
2023/10/21 02:36:18;;;;;;;6.60;5.00;;;12.70;99.90;;;;;;6272972;22;20004;-84
2023/10/21 02:38:45;;;;;;;13.23;5.60;;;12.70;99.90;;;;;;6272886;22;20012;-84
2023/10/21 02:41:10;;;;;;;8.02;5.60;;;12.70;99.90;;;;;;6271947;22;20003;-83
2023/10/21 02:43:36;;;;;;;11.40;6.93;;;12.70;99.90;;;;;;6273299;22;20050;-83
2023/10/21 02:46:09;;;;;;;8.45;5.03;;;12.70;99.90;;;;;;6272577;22;20010;-84
2023/10/21 02:48:35;;;;;;;6.57;5.50;;;12.70;99.90;;;;;;6272806;22;20441;-83
2023/10/21 02:51:15;;;;;;;7.10;4.75;;;12.70;99.90;;;;;;6272221;22;20007;-83
2023/10/21 02:53:41;;;;;;;12.05;5.75;;;12.70;99.90;;;;;;6272321;22;20007;-83
2023/10/21 02:56:13;;;;;;;5.20;4.70;;;12.80;99.90;;;;;;6271198;22;20003;-83
2023/10/21 02:58:40;;;;;;;8.70;5.20;;;12.80;99.90;;;;;;6245545;22;20004;-83
2023/10/21 03:01:19;;;;;;;6.90;5.13;;;12.80;99.90;;;;;;6271844;22;20029;-84
2023/10/21 03:03:46;;;;;;;8.38;6.15;;;12.80;99.90;;;;;;6272668;22;20364;-84
2023/10/21 03:06:13;;;;;;;7.40;5.88;;;12.80;99.90;;;;;;6271600;22;20058;-82
2023/10/21 03:08:39;;;;;;;10.93;6.38;;;12.90;99.90;;;;;;6273366;22;20042;-82
2023/10/21 03:11:07;;;;;;;7.30;5.97;;;12.90;99.90;;;;;;6271696;22;20007;-83
2023/10/21 03:13:34;;;;;;;6.68;5.60;;;12.90;99.90;;;;;;6279127;22;20007;-84
2023/10/21 03:16:05;;;;;;;5.55;4.63;;;12.90;99.90;;;;;;6278749;22;20503;-82
2023/10/21 03:18:31;;;;;;;11.27;6.07;;;12.90;99.90;;;;;;6278536;22;20003;-83
2023/10/21 03:20:56;;;;;;;11.65;6.20;;;12.90;99.90;;;;;;6272027;22;20330;-82
2023/10/21 03:23:22;;;;;;;9.10;5.55;;;13.00;99.90;;;;;;6270447;22;20448;-84
2023/10/21 03:25:54;;;;;;;7.13;5.32;;;13.00;99.90;;;;;;6268839;22;20007;-82
2023/10/21 03:28:20;;;;;;;7.90;5.38;;;12.90;99.90;;;;;;6269961;22;19996;-83
2023/10/21 03:30:49;;;;;;;7.68;5.25;;;13.00;99.90;;;;;;6242391;22;20007;-83
2023/10/21 03:33:15;;;;;;;7.15;6.30;;;13.00;99.90;;;;;;6269259;22;20053;-83
2023/10/21 03:35:53;;;;;;;9.60;5.80;;;13.00;99.90;;;;;;6270222;22;20004;-82
2023/10/21 03:38:19;;;;;;;7.78;5.80;;;13.00;99.90;;;;;;6269997;22;20015;-83
2023/10/21 03:40:55;;;;;;;10.55;7.10;;;13.00;99.90;;;;;;6271493;22;20004;-82
2023/10/21 03:43:20;;;;;;;6.85;5.55;;;13.10;99.90;;;;;;6271893;22;20042;-83
2023/10/21 03:45:46;;;;;;;11.18;7.57;;;13.10;99.90;;;;;;6271966;22;20004;-83
2023/10/21 03:48:11;;;;;;;7.75;6.05;;;13.10;99.90;;;;;;6271736;22;20008;-84
2023/10/21 03:50:37;;;;;;;8.90;5.68;;;13.10;99.90;;;;;;6271702;22;20004;-83
2023/10/21 03:53:03;;;;;;;9.30;5.88;;;13.10;99.90;;;;;;6271409;22;20071;-82
2023/10/21 03:55:28;;;;;;;7.07;5.55;;;13.20;99.90;;;;;;6271215;22;20004;-83
2023/10/21 03:57:54;;;;;;;10.20;5.85;;;13.20;99.90;;;;;;6271364;22;20003;-83
2023/10/21 04:00:21;;;;;;;7.65;5.05;;;13.20;99.90;;;;;;6271560;22;20059;-82
2023/10/21 04:02:47;;;;;;;8.60;6.22;;;13.20;99.90;;;;;;6272075;22;20753;-82
2023/10/21 04:05:12;;;;;;;7.32;5.55;;;13.20;99.90;;;;;;6270893;22;20007;-82
2023/10/21 04:07:38;;;;;;;9.35;5.60;;;13.20;99.90;;;;;;6271827;22;20482;-82
2023/10/21 04:10:04;;;;;;;9.82;6.22;;;13.20;99.90;;;;;;6269871;22;20003;-82
2023/10/21 04:12:30;;;;;;;8.70;5.50;;;13.20;99.90;;;;;;6271752;22;20171;-81
2023/10/21 04:14:56;;;;;;;8.43;5.70;;;13.20;99.90;;;;;;6271055;22;20003;-82
2023/10/21 04:17:21;;;;;;;6.90;5.57;;;13.20;99.90;;;;;;6243920;22;20050;-82
2023/10/21 04:19:47;;;;;;;9.50;6.45;;;13.20;99.90;;;;;;6271766;22;20480;-82
2023/10/21 04:22:12;;;;;;;7.18;5.57;;;13.20;99.90;;;;;;6270722;22;20003;-83
2023/10/21 04:24:38;;;;;;;8.50;4.60;;;13.20;99.90;;;;;;6271391;22;20003;-82
2023/10/21 04:27:03;;;;;;;8.88;6.35;;;13.20;99.90;;;;;;6271485;22;20074;-81
2023/10/21 04:29:32;;;;;;;10.27;6.47;;;13.20;99.90;;;;;;6272067;22;20392;-82
2023/10/21 04:32:00;;;;;;;9.68;6.28;;;13.20;99.90;;;;;;6271961;22;20007;-83
2023/10/21 04:34:26;;;;;;;11.48;7.93;;;13.20;99.90;;;;;;6271421;22;20008;-83
2023/10/21 04:36:51;;;;;;;7.32;6.35;;;13.20;99.90;;;;;;6271200;22;20457;-81
2023/10/21 04:39:17;;;;;;;7.68;6.07;;;13.20;99.90;;;;;;6271112;22;20436;-83
2023/10/21 04:41:43;;;;;;;10.48;6.43;;;13.20;99.90;;;;;;6272441;22;20004;-82
2023/10/21 04:44:10;;;;;;;12.13;6.40;;;13.10;99.90;;;;;;6273051;22;20079;-84
2023/10/21 04:46:36;;;;;;;9.90;6.18;;;13.10;99.90;;;;;;6274110;22;20201;-83
2023/10/21 04:49:01;;;;;;;10.38;6.63;;;13.10;99.90;;;;;;6273057;22;20417;-82
2023/10/21 04:51:27;;;;;;;11.55;6.45;;;13.10;99.90;;;;;;6273064;22;20613;-82
2023/10/21 04:53:52;;;;;;;9.25;6.97;;;13.10;99.90;;;;;;6273155;22;20049;-82
2023/10/21 04:56:18;;;;;;;10.45;7.03;;;13.10;99.90;;;;;;6273264;22;20010;-82
2023/10/21 04:58:43;;;;;;;10.77;7.00;;;13.00;99.90;;;;;;6273570;22;20003;-82
2023/10/21 05:01:10;;;;;;;11.40;7.65;;;13.00;99.90;;;;;;6272781;22;20372;-83
2023/10/21 05:03:36;;;;;;;11.55;7.10;;;13.00;99.90;;;;;;6274282;22;20034;-82
2023/10/21 05:06:04;;;;;;;8.55;7.25;;;12.90;99.90;;;;;;6242846;22;20485;-82
2023/10/21 05:08:30;;;;;;;10.73;7.35;;;13.00;99.90;;;;;;6271361;22;20024;-82
2023/10/21 05:10:56;;;;;;;10.75;7.80;;;13.00;99.90;;;;;;6272270;22;20004;-81
2023/10/21 05:13:21;;;;;;;10.85;7.38;;;12.90;99.90;;;;;;6244312;22;20664;-84
2023/10/21 05:15:47;;;;;;;10.00;6.97;;;12.90;99.90;;;;;;6246403;22;19999;-83
2023/10/21 05:18:12;;;;;;;10.25;7.72;;;12.90;99.90;;;;;;6245969;22;20000;-83
2023/10/21 05:20:38;;;;;;;8.13;5.82;;;12.90;99.90;;;;;;6272922;22;19999;-83
2023/10/21 05:23:03;;;;;;;9.48;7.85;;;12.90;99.90;;;;;;6246017;22;20048;-81
2023/10/21 05:25:29;;;;;;;10.30;7.25;;;12.80;99.90;;;;;;6273571;22;20003;-82
2023/10/21 05:27:54;;;;;;;7.45;6.60;;;12.80;99.90;;;;;;6273109;22;20455;-82
2023/10/21 05:30:20;;;;;;;8.15;6.57;;;12.90;99.90;;;;;;6273041;22;20455;-82
2023/10/21 05:32:45;;;;;;;12.80;7.20;;;12.80;99.90;;;;;;6245775;22;20000;-82
2023/10/21 05:35:11;;;;;;;11.18;7.03;;;12.80;99.90;;;;;;6245179;22;20006;-84
2023/10/21 05:37:36;;;;;;;11.60;6.55;;;12.80;99.90;;;;;;6273261;22;20003;-82
2023/10/21 05:40:05;;;;;;;11.10;7.10;;;12.80;99.90;;;;;;6272639;22;19996;-83
2023/10/21 05:42:31;;;;;;;9.75;6.90;;;12.80;99.90;;;;;;6273495;22;19995;-82
2023/10/21 05:44:57;;;;;;;9.30;6.75;;;12.80;99.90;;;;;;6272446;22;20301;-82
2023/10/21 05:47:23;;;;;;;9.02;6.90;;;12.80;99.90;;;;;;6272736;22;20046;-82
2023/10/21 05:49:48;;;;;;;9.20;6.13;;;12.80;99.90;;;;;;6272459;22;20007;-83
2023/10/21 05:52:17;;;;;;;10.10;6.55;;;12.80;99.90;;;;;;6244753;22;20097;-82
2023/10/21 05:54:42;;;;;;;10.07;6.05;;;12.80;99.90;;;;;;6272824;22;20007;-82
2023/10/21 05:57:08;;;;;;;11.25;6.88;;;12.80;99.90;;;;;;6272173;22;19999;-82
2023/10/21 05:59:33;;;;;;;13.48;5.93;;;12.80;99.90;;;;;;6273095;22;19999;-82
2023/10/21 06:01:59;;;;;;;13.85;6.65;;;12.80;99.90;;;;;;6272733;22;20083;-82
2023/10/21 06:04:24;;;;;;;8.25;5.93;;;12.80;99.90;;;;;;6272257;22;20004;-83
2023/10/21 06:06:54;;;;;;;10.52;5.90;;;12.80;99.90;;;;;;6273593;22;20008;-83
2023/10/21 06:09:20;;;;;;;9.02;5.85;;;12.80;99.90;;;;;;6276423;22;20054;-83
2023/10/21 06:11:46;;;;;;;12.85;5.28;;;12.80;99.90;;;;;;6278070;22;19999;-82
2023/10/21 06:14:11;;;;;;;9.82;5.53;;;12.80;99.90;;;;;;6277777;22;20330;-82
2023/10/21 06:16:37;;;;;;;8.52;6.20;;;12.80;99.90;;;;;;6273553;22;20049;-83
2023/10/21 06:19:02;;;;;;;12.82;6.53;;;12.90;99.90;;;;;;6272278;22;20321;-83
2023/10/21 06:21:28;;;;;;;10.13;6.05;;;13.00;99.90;;;;;;6272991;22;20004;-83
2023/10/21 06:23:54;;;;;;;12.48;6.55;;;13.00;99.90;;;;;;6272713;22;20134;-81
2023/10/21 06:26:19;;;;;;;8.55;6.40;;;13.10;99.90;;;;;;6245239;22;20015;-83
2023/10/21 06:28:45;;;;;;;13.43;6.55;;;13.20;99.90;;;;;;6245792;22;20011;-82
2023/10/21 06:31:11;;;;;;;12.20;5.68;;;13.20;99.90;;;;;;6244641;22;20307;-82
2023/10/21 06:33:37;;;;;;;10.75;6.45;;;13.20;99.90;;;;;;6272439;22;20053;-83
2023/10/21 06:36:04;;;;;;;10.73;5.90;;;13.20;99.90;;;;;;6271997;22;20000;-84
2023/10/21 06:38:30;;;;;;;8.50;6.18;;;13.20;99.90;;;;;;6245424;22;20012;-83
2023/10/21 06:40:56;;;;;;;10.48;5.47;;;13.10;99.90;;;;;;6272561;22;20007;-81
2023/10/21 06:43:23;;;;;;;9.15;6.93;;;13.10;99.90;;;;;;6272681;22;20028;-83
2023/10/21 06:45:48;;;;;;;11.65;7.32;;;13.10;99.90;;;;;;6272917;22;20046;-83
2023/10/21 06:48:14;;;;;;;14.73;7.40;;;13.10;99.90;;;;;;6272040;22;20532;-84
2023/10/21 06:50:39;;;;;;;9.57;6.20;;;13.00;99.90;;;;;;6273222;22;20390;-83
2023/10/21 06:53:05;;;;;;;17.88;8.07;;;13.00;99.90;;;;;;6272653;22;20012;-83
2023/10/21 06:55:41;;;;;;;12.50;7.72;;;13.00;99.90;;;;;;6273348;22;19996;-84
2023/10/21 06:58:07;;;;;;;8.48;7.65;;;13.00;99.90;;;;;;6272201;22;20101;-84
2023/10/21 07:00:32;;;;;;;11.32;7.22;;;13.00;99.90;;;;;;6273062;22;20004;-84
2023/10/21 07:02:58;;;;;;;13.88;8.20;;;13.10;99.90;;;;;;6272318;22;20015;-84
2023/10/21 07:05:23;;;;;;;14.23;8.20;;;13.20;99.90;;;;;;6271678;22;20031;-84
2023/10/21 07:07:49;;;;;;;11.45;7.75;;;13.20;99.90;;;;;;6272683;22;20007;-85
2023/10/21 07:10:14;;;;;;;11.00;8.18;;;13.30;99.90;;;;;;6244770;22;20065;-84
2023/10/21 07:12:40;;;;;;;12.80;8.35;;;13.40;99.90;;;;;;6272735;22;20325;-85
2023/10/21 07:15:09;;;;;;;11.32;7.57;;;13.50;99.90;;;;;;6271825;22;20007;-86
2023/10/21 07:17:36;;;;;;;11.43;7.88;;;13.60;99.90;;;;;;6272099;22;20000;-84
2023/10/21 07:20:05;;;;;;;12.48;7.78;;;13.70;99.90;;;;;;6272708;22;20090;-86
2023/10/21 07:22:30;;;;;;;12.25;7.90;;;13.70;99.90;;;;;;6272660;22;20200;-85
2023/10/21 07:24:57;;;;;;;12.07;8.43;;;13.80;99.90;;;;;;6272686;22;20471;-85
2023/10/21 07:27:24;;;;;;;13.52;8.82;;;13.80;99.90;;;;;;6272203;22;20091;-86
2023/10/21 07:29:49;;;;;;;8.48;6.40;;;13.90;99.90;;;;;;6272520;22;20247;-85
2023/10/21 07:32:15;;;;;;;11.38;7.55;;;13.90;99.90;;;;;;6271066;22;20022;-74
2023/10/21 07:34:41;;;;;;;10.95;5.78;;;14.00;99.90;;;;;;6272273;22;20421;-75
2023/10/21 07:37:07;;;;;;;12.52;5.90;;;14.00;99.90;;;;;;6271165;22;19999;-75
2023/10/21 07:39:32;;;;;;;8.07;5.55;;;14.10;99.90;;;;;;6272028;22;20095;-74
2023/10/21 07:41:58;;;;;;;10.15;4.68;;;14.10;99.90;;;;;;6272573;22;20325;-75
2023/10/21 07:44:23;;;;;;;8.80;4.28;;;14.20;99.90;;;;;;6271379;22;20042;-75
2023/10/21 07:46:50;;;;;;;7.22;4.13;;;14.20;99.90;;;;;;6271510;22;20038;-75
2023/10/21 07:49:16;;;;;;;5.60;4.45;;;14.20;99.90;;;;;;6271495;22;20490;-75
2023/10/21 07:51:42;;;;;;;8.43;4.70;;;14.30;99.90;;;;;;6271577;22;20075;-74
2023/10/21 07:54:07;;;;;;;4.72;3.85;;;14.40;99.90;;;;;;6271134;22;20003;-75
2023/10/21 07:56:33;;;;;;;6.57;3.28;;;14.40;99.90;;;;;;6271757;22;20088;-75
2023/10/21 07:58:58;;;;;;;9.02;4.25;;;14.40;99.90;;;;;;6271912;22;20050;-75
2023/10/21 08:01:24;;;;;;;8.07;4.53;;;14.50;99.90;;;;;;6270195;22;20082;-75
2023/10/21 08:03:51;;;;;;;8.35;4.57;;;14.50;99.90;;;;;;6271837;22;19999;-75
2023/10/21 08:06:17;;;;;;;7.85;4.00;;;14.60;99.90;;;;;;6270896;22;20029;-75
2023/10/21 08:08:42;;;;;;;5.57;3.90;;;14.60;99.90;;;;;;6271729;22;20078;-75
2023/10/21 08:11:08;;;;;;;6.38;4.22;;;14.70;99.90;;;;;;6270884;22;20448;-75
2023/10/21 08:13:34;;;;;;;4.15;3.50;;;14.70;99.90;;;;;;6271695;22;19996;-75
2023/10/21 08:16:00;;;;;;;4.90;3.38;;;14.70;99.90;;;;;;6270589;22;20031;-75
2023/10/21 08:18:25;;;;;;;4.68;2.90;;;14.70;99.90;;;;;;6271166;22;20000;-75
2023/10/21 08:20:51;;;;;;;4.32;2.63;;;14.70;99.90;;;;;;6271586;22;20273;-75
2023/10/21 08:23:17;;;;;;;4.32;3.00;;;14.60;99.90;;;;;;6243592;22;20000;-75
2023/10/21 08:25:42;;;;;;;2.85;1.77;;;14.60;99.90;;;;;;6271968;22;20177;-73
2023/10/21 08:28:11;;;;;;;2.83;1.17;;;14.60;99.90;;;;;;6270967;22;20008;-75
2023/10/21 08:30:37;;;;;;;3.70;1.08;;;14.50;99.90;;;;;;6271135;22;20031;-74
2023/10/21 08:33:05;;;;;;;2.80;1.52;;;14.50;99.90;;;;;;6271199;22;20042;-75
2023/10/21 08:35:32;;;;;;;3.38;0.80;;;14.50;99.90;;;;;;6271340;22;20000;-74
2023/10/21 08:37:58;;;;;;;2.95;1.00;;;14.60;99.90;;;;;;6271150;22;20105;-75
2023/10/21 08:40:24;;;;;;;2.25;0.93;;;14.70;99.90;;;;;;6270580;22;19999;-75
2023/10/21 08:42:50;;;;;;;2.03;0.93;;;14.70;99.90;;;;;;6271454;22;19996;-75
2023/10/21 08:45:18;;;;;;;1.77;1.15;;;14.80;99.90;;;;;;6270294;22;20027;-74
2023/10/21 08:47:44;;;;;;;1.23;0.85;;;14.90;99.90;;;;;;6244138;22;20003;-74
2023/10/21 08:50:12;;;;;;;3.50;0.70;;;15.00;99.90;;;;;;6243749;22;20000;-74
2023/10/21 08:52:40;;;;;;;3.72;0.70;;;15.10;99.90;;;;;;6271409;22;20321;-74
2023/10/21 08:55:06;;;;;;;2.58;0.57;;;15.10;99.90;;;;;;6270920;22;20003;-73
2023/10/21 08:57:32;;;;;;;1.17;0.50;;;15.00;99.90;;;;;;6271153;22;20325;-74
2023/10/21 08:59:59;;;;;;;1.00;0.57;;;14.90;99.90;;;;;;6270877;22;20042;-73
2023/10/21 09:02:25;;;;;;;1.42;1.30;;;14.90;99.90;;;;;;6270930;22;20286;-74
2023/10/21 09:04:50;;;;;;;2.75;0.98;;;14.80;99.90;;;;;;6271598;22;20004;-74
2023/10/21 09:07:16;;;;;;;1.77;0.50;;;14.80;99.90;;;;;;6270855;22;20090;-74
2023/10/21 09:09:42;;;;;;;2.53;0.50;;;14.80;99.90;;;;;;6271729;22;20004;-75
2023/10/21 09:12:14;;;;;;;4.65;1.17;;;14.80;99.90;;;;;;6271003;22;20083;-74
2023/10/21 09:14:57;;;;;;;1.70;0.53;;;14.80;99.90;;;;;;6271094;22;20475;-74
2023/10/21 09:17:36;;;;;;;1.75;0.40;;;14.80;99.90;;;;;;6270719;22;19996;-74
2023/10/21 09:20:13;;;;;;;3.17;0.95;;;14.90;99.90;;;;;;6271500;22;20003;-75
2023/10/21 09:22:40;;;;;;;1.45;0.40;;;14.90;99.90;;;;;;6271453;22;20333;-74
2023/10/21 09:25:18;;;;;;;2.25;0.50;;;15.00;99.90;;;;;;6271127;22;20000;-74
2023/10/21 09:27:53;;;;;;;2.55;0.88;;;15.10;99.90;;;;;;6272068;22;20026;-74
2023/10/21 09:30:24;;;;;;;2.45;1.17;;;15.20;99.90;;;;;;6272562;22;20497;-74
2023/10/21 09:32:50;;;;;;;1.30;0.50;;;15.20;99.90;;;;;;6273585;22;20413;-74
2023/10/21 09:35:30;;;;;;;0.50;0.40;;;15.30;99.90;;;;;;6273008;22;20054;-75
2023/10/21 09:37:56;;;;;;;3.25;0.73;;;15.40;99.90;;;;;;6246180;22;20095;-74
2023/10/21 09:40:25;;;;;;;1.67;0.57;;;15.40;99.90;;;;;;6272571;22;20003;-74
2023/10/21 09:42:55;;;;;;;3.30;0.40;;;15.40;99.90;;;;;;6272516;22;20006;-74
2023/10/21 09:45:24;;;;;;;1.52;0.20;;;15.40;99.90;;;;;;6272786;22;19995;-74
2023/10/21 09:47:53;;;;;;;2.17;0.35;;;15.40;99.90;;;;;;6273373;22;19999;-74
2023/10/21 09:50:19;;;;;;;1.23;0.30;;;15.40;99.90;;;;;;6271780;22;20003;-74
2023/10/21 09:52:53;;;;;;;2.40;0.75;;;15.50;99.90;;;;;;6273453;22;20052;-74
2023/10/21 09:55:24;;;;;;;1.13;0.30;;;15.50;99.90;;;;;;6272615;22;20006;-74
2023/10/21 09:57:53;;;;;;;3.90;0.40;;;15.50;99.90;;;;;;6272770;22;20004;-74
2023/10/21 10:00:19;;;;;;;2.55;0.30;;;15.50;99.90;;;;;;6271957;22;19999;-74
2023/10/21 10:02:48;;;;;;;1.63;0.45;;;15.60;99.90;;;;;;6272892;22;20020;-73
2023/10/21 10:05:17;;;;;;;1.95;0.20;;;15.60;99.90;;;;;;6272423;22;20361;-73
2023/10/21 10:07:45;;;;;;;4.43;0.38;;;15.60;99.90;;;;;;6273271;22;20078;-73
2023/10/21 10:10:12;;;;;;;1.70;0.38;;;15.60;99.90;;;;;;6272349;22;20010;-73
2023/10/21 10:12:48;;;;;;;5.22;0.50;;;15.60;99.90;;;;;;6272566;22;20008;-74
2023/10/21 10:15:31;;;;;;;3.05;0.60;;;15.60;99.90;;;;;;6270961;22;20078;-73
2023/10/21 10:17:58;;;;;;;1.52;0.45;;;15.70;99.90;;;;;;6272153;22;20095;-73
2023/10/21 10:20:26;;;;;;;1.98;0.50;;;15.70;99.90;;;;;;6271800;22;20385;-73
2023/10/21 10:23:07;;;;;;;3.08;0.70;;;15.70;99.90;;;;;;6271883;22;20030;-73
2023/10/21 10:25:35;;;;;;;1.95;0.38;;;15.80;99.90;;;;;;6272030;22;20075;-73
2023/10/21 10:28:05;;;;;;;4.45;0.70;;;15.80;99.90;;;;;;6244553;22;20443;-72
2023/10/21 10:30:32;;;;;;;2.97;0.40;;;15.90;99.90;;;;;;6272292;22;20077;-73
2023/10/21 10:33:06;;;;;;;1.70;0.40;;;15.90;99.90;;;;;;6272549;22;20332;-73
2023/10/21 10:35:37;;;;;;;1.35;0.38;;;15.90;99.90;;;;;;6272549;22;19996;-73
2023/10/21 10:38:16;;;;;;;1.75;0.35;;;15.90;99.90;;;;;;6272114;22;20016;-73
2023/10/21 10:40:43;;;;;;;1.13;0.30;;;15.90;99.90;;;;;;6271822;22;20067;-73
2023/10/21 10:43:11;;;;;;;2.20;0.30;;;15.90;99.90;;;;;;6272014;22;20297;-73
2023/10/21 10:45:38;;;;;;;2.40;0.40;;;15.90;99.90;;;;;;6272536;22;20475;-73
2023/10/21 10:48:07;;;;;;;3.03;0.70;;;16.00;99.90;;;;;;6272097;22;20011;-73
2023/10/21 10:50:39;;;;;;;2.28;0.38;;;16.00;99.90;;;;;;6272170;22;20003;-73
2023/10/21 10:53:20;;;;;;;3.17;0.43;;;16.10;99.90;;;;;;6271856;22;20012;-73
2023/10/21 10:55:50;;;;;;;1.10;0.30;;;16.20;99.90;;;;;;6271891;22;20030;-73
2023/10/21 10:58:18;;;;;;;2.03;0.40;;;16.20;99.90;;;;;;6271249;22;20119;-75
2023/10/21 11:00:45;;;;;;;1.65;0.40;;;16.20;99.90;;;;;;6272652;22;20064;-73
2023/10/21 11:03:21;;;;;;;4.03;0.82;;;16.10;99.90;;;;;;6271411;22;20000;-73
2023/10/21 11:05:48;;;;;;;1.50;0.43;;;16.00;99.90;;;;;;6271654;22;20075;-74
2023/10/21 11:08:15;;;;;;;2.30;0.50;;;15.90;99.90;;;;;;6271026;22;20075;-73
2023/10/21 11:10:41;;;;;;;4.03;0.40;;;15.90;99.90;;;;;;6244172;22;20392;-73
2023/10/21 11:13:07;;;;;;;3.47;0.95;;;15.90;99.90;;;;;;6270319;22;20023;-74
2023/10/21 11:15:51;;;;;;;3.70;0.57;;;15.80;99.90;;;;;;6271694;22;20059;-73
2023/10/21 11:18:18;;;;;;;1.95;0.47;;;15.90;99.90;;;;;;6271325;22;20053;-73
2023/10/21 11:20:51;;;;;;;3.28;0.47;;;15.90;99.90;;;;;;6271630;22;20039;-73
2023/10/21 11:23:23;;;;;;;1.83;0.60;;;15.90;99.90;;;;;;6270505;22;20134;-73
2023/10/21 11:25:50;;;;;;;1.45;0.40;;;15.80;99.90;;;;;;6244844;22;20000;-73
2023/10/21 11:28:17;;;;;;;4.07;0.68;;;15.80;99.90;;;;;;6271177;22;20004;-73
2023/10/21 11:30:44;;;;;;;5.13;0.70;;;15.70;99.90;;;;;;6244671;22;20058;-74
2023/10/21 11:33:10;;;;;;;4.20;1.05;;;15.80;99.90;;;;;;6271162;22;20095;-73
2023/10/21 11:35:40;;;;;;;4.10;0.77;;;15.70;99.90;;;;;;6271878;22;19999;-73
2023/10/21 11:38:06;;;;;;;3.78;1.13;;;15.80;99.90;;;;;;6270435;22;20049;-73
2023/10/21 11:40:36;;;;;;;4.57;0.90;;;15.80;99.90;;;;;;6271490;22;20012;-73
2023/10/21 11:43:04;;;;;;;13.35;1.67;;;15.90;99.90;;;;;;6271566;22;20011;-73
2023/10/21 11:45:30;;;;;;;5.95;0.60;;;15.90;99.90;;;;;;6271714;22;20027;-74
2023/10/21 11:47:57;;;;;;;4.97;0.95;;;15.90;99.90;;;;;;6271920;22;20452;-73
2023/10/21 11:50:32;;;;;;;2.30;0.93;;;15.90;99.90;;;;;;6270977;22;20018;-73
2023/10/21 11:53:02;;;;;;;2.42;0.70;;;15.90;99.90;;;;;;6271481;22;20038;-73
2023/10/21 11:56:01;;;;;;;2.88;0.63;;;15.90;99.90;;;;;;6271152;22;20007;-73
2023/10/21 12:22:52;;;;;;;3.13;0.52;;;16.40;99.90;;;;;;6176569;23;20087;-72
2023/10/21 12:25:41;;;;;;;6.38;0.70;;;16.30;99.90;;;;;;6177036;23;20016;-73
2023/10/21 12:36:20;;;;;;;3.97;0.60;;;16.40;99.90;;;;;;6187365;23;20063;-73
2023/10/21 12:39:19;;;;;;;1.33;0.47;;;16.50;99.90;;;;;;6177754;23;20020;-73
2023/10/21 12:41:53;;;;;;;5.47;0.70;;;16.50;99.90;;;;;;6177629;23;20080;-73
2023/10/21 12:44:37;;;;;;;4.25;0.77;;;16.60;99.90;;;;;;6176832;23;20005;-73
2023/10/21 12:47:05;;;;;;;3.70;0.70;;;16.70;99.90;;;;;;6271455;22;20000;-72
2023/10/21 12:49:32;;;;;;;4.35;0.80;;;16.70;99.90;;;;;;6271270;22;20126;-72
2023/10/21 12:51:58;;;;;;;2.38;0.68;;;16.60;99.90;;;;;;6270766;22;20030;-73
2023/10/21 12:54:24;;;;;;;5.55;1.00;;;16.50;99.90;;;;;;6270547;22;20080;-73
2023/10/21 12:56:50;;;;;;;3.38;0.65;;;16.50;99.90;;;;;;6269499;22;20026;-73
2023/10/21 12:59:16;;;;;;;2.63;0.75;;;16.40;99.90;;;;;;6243506;22;20000;-74
2023/10/21 13:01:42;;;;;;;3.60;0.50;;;16.30;99.90;;;;;;6271227;22;20070;-73
2023/10/21 13:04:09;;;;;;;5.63;0.65;;;16.30;99.90;;;;;;6273109;22;20424;-74
2023/10/21 13:06:35;;;;;;;4.05;1.80;;;16.40;99.90;;;;;;6271062;22;20413;-74
2023/10/21 13:09:00;;;;;;;6.93;0.60;;;16.50;99.90;;;;;;6269212;22;20018;-74
2023/10/21 13:11:27;;;;;;;5.60;1.00;;;16.50;99.90;;;;;;6269514;22;20304;-74
2023/10/21 13:13:54;;;;;;;3.70;0.63;;;16.50;99.90;;;;;;6271108;22;20318;-74
2023/10/21 13:16:20;;;;;;;4.28;0.75;;;16.50;99.90;;;;;;6270774;22;20481;-74